Terminal Aerodrome Forecast
Issued by NWS Duluth, MN

Home | Current Version | Previous Version | Text Only | Print | Product List | Glossary On
Versions: 1 2 3 4 5 6 7 8 9 10 11 12 13 14 15 16 17 18 19 20 21 22 23 24 25 26 27
000
FTUS43 KDLH 261557 AAD
TAFDLH
TAF AMD
KDLH 261557Z 2616/2712 35015KT 1 1/2SM -SN BKN010 BKN018
      TEMPO 2616/2617 1/4SM SN FZFG FEW007 BKN013 OVC021
     FM261800 30012KT P6SM SCT025 BKN040
     FM262300 30008KT P6SM SCT050 BKN100
     FM270800 15005KT P6SM SCT015 BKN040=

USA.gov is the U.S. government's official web portal to all federal, state and local government web resources and services.